Overton, Nevada Weather observations

Data are for observation ending at time listed.
 Day   Time    Ave.   Ave.  Ave.  Vector   Max.   Stn.    Total    Solar   Ave.  
  of    of     Air    Rel.  Wind   Wind    Wind   Baro.  Precip.   Rad.    Soil  
Year   Day     Temp.  Hum.  Speed  Dir.    Gust   Pres.                    Temp. 
2015   (PST)    F      %     mph   deg.    mph     mb.     in.     W/m2     F   
------------------------------------------------------------------------------
 125   13:50   84.4    21    8.0   185     17.4   961.9    0.00     734    87.7
 125   14:00   85.6    21    8.1   144     16.9   961.7    0.00     533    87.4
 125   14:10   85.4    21    8.1   160     13.7   961.5    0.00     455    87.2
 125   14:20   85.9    20    8.2   157     18.0   961.3    0.00     657    86.9
 125   14:30   85.5    20    7.1   168     11.7   961.2    0.00     597    86.8
 125   14:40   85.9    21    8.2   155     16.2   960.9    0.00     614    86.6
 125   14:50   86.0    21    7.9   162     15.4   960.9    0.00     600    86.5
 125   15:00   85.7    22    7.4   148     17.2   960.7    0.00     563    86.5
 125   15:10   86.2    21    7.7   164     14.6   960.5    0.00     549    86.4
 125   15:20   86.3    22    7.2   162     14.5   960.4    0.00     522    86.4
 125   15:30   86.5    22    7.9   137     15.3   960.1    0.00     484    86.3
 125   15:40   86.5    22    7.2   145     13.5   960.1    0.00     457    86.2
 125   15:50   86.3    22    7.5   167     18.9   960.0    0.00     434    86.2
 125   16:00   86.5    22    7.9   154     14.5   959.9    0.00     378    86.2
 125   16:10   86.3    22    7.7   144     15.4   959.9    0.00     372    86.2
 125   16:20   86.4    22    7.8   134     15.6   959.8    0.00     339    86.2
 125   16:30   86.4    22    7.8   136     15.5   959.6    0.00     312    86.1
 125   16:40   86.2    22    8.7   139     18.2   959.6    0.00     275    86.1
 125   16:50   85.9    22    8.1   143     18.3   959.5    0.00     246    86.1
 125   17:00   85.6    22    8.8   139     16.5   959.4    0.00     213    86.0
 125   17:10   85.6    22    8.3   134     17.9   959.4    0.00     182    85.9
 125   17:20   85.3    23    8.2   139     14.9   959.3    0.00     155    85.8
 125   17:30   85.0    23    7.9   138     15.7   959.2    0.00     124    85.6
 125   17:40   84.6    23    7.0   138     15.1   959.2    0.00      43    85.5
 125   17:50   84.2    23    8.8   146     16.4   959.2    0.00      54    85.3
 125   18:00   84.0    23    8.7   154     17.6   959.2    0.00      38    85.0
 125   18:10   83.6    24    7.6   150     15.2   959.2    0.00      23    84.8
 125   18:20   83.2    24    9.1   148     18.5   959.2    0.00      13    84.6
 125   18:30   82.9    24    9.7   149     18.0   959.2    0.00       6    84.4
 125   18:40   82.5    25    9.1   154     17.5   959.3    0.00       1    84.1
 125   18:50   82.2    25   10.1   152     23.2   959.3    0.00       0    83.9
 125   19:00   82.0    25   11.3   160     22.5   959.3    0.00       0    83.6
 125   19:10   81.6    25   10.0   164     17.2   959.3    0.00       0    83.3
 125   19:20   81.5    25   12.5   158     21.9   959.3    0.00       0    83.1
 125   19:30   81.3    26   10.7   158     22.1   959.5    0.00       0    82.8
 125   19:40   81.2    26    9.8   150     20.7   959.6    0.00       0    82.6
 125   19:50   80.9    25    9.8   151     20.5   959.8    0.00       0    82.4
 125   20:00   80.6    25    9.2   152     19.1   960.0    0.00       0    82.2
 125   20:10   80.5    24    8.8   149     18.0   960.1    0.00       0    82.1
 125   20:20   80.3    24    6.4   144     13.4   960.3    0.00       0    81.9
 125   20:30   80.0    24    5.1   128     10.3   960.6    0.00       0    81.8
 125   20:40   79.4    25    6.7    78     13.2   961.1    0.00       0    81.6
 125   20:50   78.0    28   12.2    53     21.4   961.5    0.00       0    81.5
 125   21:00   77.2    29   13.2    46     24.4   961.7    0.00       0    81.3
 125   21:10   76.9    30   15.7    48     25.7   961.9    0.00       0    81.1
 125   21:20   74.8    35   16.5    50     34.4   962.2    0.00       0    80.9
 125   21:30   74.3    36   14.0    44     25.1   961.9    0.00       0    80.6
 125   21:40   73.7    36   11.4    41     20.5   962.1    0.00       0    80.3
 125   21:50   73.6    36   14.3    34     29.5   962.0    0.00       0    80.1
 125   22:00   73.4    37   12.9    35     25.3   962.1    0.00       0    79.8
 125   22:10   73.0    38   14.7    33     28.4   962.0    0.00       0    79.5
 125   22:20   72.5    39   15.6    33     26.6   961.9    0.00       0    79.2
 125   22:30   72.2    39   15.1    31     28.6   961.7    0.00       0    78.9
 125   22:40   72.2    39   12.2    37     19.8   961.7    0.00       0    78.6
 125   22:50   72.1    39   14.2    28     23.3   961.6    0.00       0    78.4
 125   23:00   71.8    39   12.2    28     19.4   961.5    0.00       0    78.2
 125   23:10   71.7    40   11.5    30     20.7   961.4    0.00       0    78.0
 125   23:20   71.5    41   11.6    26     20.6   961.5    0.00       0    77.7
 125   23:30   70.9    42   11.4    20     17.8   961.4    0.00       0    77.5
 125   23:40   70.5    42   13.4    22     23.5   961.4    0.00       0    77.3
 125   23:50   70.1    43   13.1    18     20.6   961.3    0.00       0    77.1
 126    0:00   69.9    43   10.2    17     17.9   961.3    0.00       0    76.9
 126    0:10   69.3    44    9.9    16     16.7   961.3    0.00       0    76.7
 126    0:20   68.8    46    8.9    10     14.0   961.2    0.00       0    76.4
 126    0:30   68.8    46    2.6   284      7.0   961.3    0.00       0    76.2
 126    0:40   68.3    46    4.0   304      9.0   961.3    0.00       0    76.0
 126    0:50   68.1    46    5.1   323      9.3   961.2    0.00       0    75.8
 126    1:00   68.0    47    4.9   316     12.0   961.2    0.00       0    75.7
 126    1:10   68.1    47    4.3   319      8.4   961.2    0.00       0    75.5
 126    1:20   68.2    47    3.2   306      5.8   961.1    0.00       0    75.4
 126    1:30   67.8    48    4.0   308      7.2   961.2    0.00       0    75.3
 126    1:40   67.2    48    3.1   320      4.5   961.3    0.00       0    75.2
 126    1:50   67.2    48    4.9   316      7.6   961.2    0.00       0    75.1
 126    2:00   67.1    49    5.6   332      7.4   961.1    0.00       0    74.9
 126    2:10   67.3    49    5.7   331      9.9   961.1    0.00       0    74.8
 126    2:20   67.4    49    4.3   326      7.5   961.0    0.00       0    74.6
 126    2:30   67.4    49    3.5   350      7.4   961.0    0.00       0    74.5
 126    2:40   67.6    49    3.9   343      7.0   961.0    0.00       0    74.4
 126    2:50   67.5    50    4.6   322      8.9   961.0    0.00       0    74.3
 126    3:00   67.8    50    4.2   291      8.6   961.0    0.00       0    74.2
 126    3:10   67.7    49    5.6   333     11.3   961.0    0.00       0    74.1
 126    3:20   67.6    50    3.8   320      8.6   961.0    0.00       0    74.0
 126    3:30   67.5    50    3.5   318      7.1   961.0    0.00       0    73.9
 126    3:40   67.7    49    4.6   328      8.8   960.9    0.00       0    73.8
 126    3:50   67.7    49    4.6   317      7.9   960.8    0.00       0    73.7
 126    4:00   67.7    48    3.7   328      6.9   960.8    0.00       0    73.6
 126    4:10   67.7    48    4.0   341      8.8   960.8    0.00       0    73.5
 126    4:20   67.6    49    2.2   304      5.8   960.8    0.00       0    73.4
 126    4:30   67.2    50    1.5   274      3.5   960.7    0.00       0    73.3
 126    4:40   66.8    50    2.3   291      4.7   960.6    0.00       0    73.3
 126    4:50   67.0    50    3.6   318      6.5   960.6    0.00       3    73.2
 126    5:00   66.9    50    3.2   314     10.2   960.6    0.00      10    73.1
 126    5:10   66.2    52    2.8   302      5.3   960.6    0.00      21    73.0
 126    5:20   65.8    53    3.2   305      7.5   960.7    0.00      32    73.0
 126    5:30   66.1    52    2.9   313      4.5   960.7    0.00      44    73.0
 126    5:40   66.7    51    2.4   304      4.5   960.8    0.00      60    73.1
 126    5:50   67.0    52    2.1   322      2.6   960.9    0.00      75    73.1
 126    6:00   67.1    52    1.3   321      2.3   961.0    0.00      90    73.3
 126    6:10   67.8    52    0.7   354      1.5   961.0    0.00     105    73.5
 126    6:20   68.4    50    0.7   331      1.7   961.1    0.00     115    73.8
 126    6:30   68.8    53    1.1    27      2.1   961.3    0.00     140    74.1
 126    6:40   69.1    50    2.0    44      3.2   961.3    0.00     188    74.4
 126    6:50   69.6    49    0.8     3      2.1   961.3    0.00     188    74.9
 126    7:00   70.5    47    0.3    16      1.4   961.4    0.00     205    75.3
 126    7:10   71.1    45    0.7   319      2.0   961.4    0.00     255    75.7
 126    7:20   71.4    44    1.1   336      2.9   961.5    0.00     328    76.4
 126    7:30   71.5    44    1.2   310      2.6   961.6    0.00     392    77.3
 126    7:40   72.3    43    1.5    67      3.8   961.8    0.00     401    78.4
 126    7:50   73.1    42    1.6    36      3.4   961.9    0.00     374    79.4
 126    8:00   73.8    40    1.0    12      2.7   962.0    0.00     413    80.2
 126    8:10   74.9    36    1.8    68      5.3   962.0    0.00     521    81.1
 126    8:20   74.8    34    2.9   106      5.7   962.0    0.00     622    82.5
 126    8:30   76.1    31    2.2   155      8.8   962.1    0.00     373    83.9
 126    8:40   75.1    32    3.5   188      7.7   962.1    0.00     277    84.9
 126    8:50   75.1    33    3.6   148      6.6   962.1    0.00     294    85.5
 126    9:00   76.1    31    4.4   102      8.6   962.0    0.00     300    86.0
 126    9:10   76.5    30    4.2    74     10.9   962.0    0.00     627    86.7
 126    9:20   77.9    26    4.9   136     12.6   961.9    0.00     650    87.4
 126    9:30   77.8    24    6.4   122     11.3   961.8    0.00     564    88.1
 126    9:40   78.7    23    5.7   144     13.2   961.7    0.00     567    88.6
 126    9:50   79.0    22    6.0   153     12.1   961.6    0.00     659    89.1
 126   10:00   79.4    21    7.3   159     16.6   961.6    0.00     389    89.9
 126   10:10   79.6    20    5.4   148     11.8   961.5    0.00     525    90.9
 126   10:20   80.9    19    7.5   145     14.9   961.4    0.00     695    91.7
 126   10:30   81.5    18    8.1   142     14.5   961.3    0.00     597    92.4
 126   10:40   81.3    19   10.1   148     17.2   961.1    0.00     773    92.8
 126   10:50   82.3    18    8.7   145     17.8   960.9    0.00     868    93.0
 126   11:00   82.5    18    9.0   147     20.5   960.7    0.00     710    93.3
 126   11:10   82.7    18    9.7   168     18.6   960.5    0.00     863    93.2
 126   11:20   82.7    17   11.5   154     21.4   960.3    0.00     829    92.6
 126   11:30   82.5    17   12.2   163     22.0   960.2    0.00     855    92.3
 126   11:40   83.0    16   11.1   182     18.9   960.0    0.00     866    91.6
 126   11:50   83.4    14   12.2   168     20.0   959.7    0.00     912    90.8
 126   12:00   84.2    14    9.6   151     21.3   959.5    0.00     848    90.0
 126   12:10   84.0    13   12.7   169     24.1   959.4    0.00     878    89.3
 126   12:20   84.3    12   11.1   178     22.7   959.2    0.00     897    88.7
 126   12:30   84.8    12   11.5   160     20.6   959.1    0.00     805    88.4
 126   12:40   84.6    12   10.5   163     17.4   958.9    0.00     779    88.3
 126   12:50   85.4    12   10.8   162     19.7   958.8    0.00     859    88.6
 126   13:00   84.7    11   11.2   164     22.3   958.7    0.00     838    88.7
 126   13:10   85.2    12    9.7   161     18.9   958.6    0.00     826    88.6
 126   13:20   85.4    12   12.1   165     21.4   958.4    0.00     831    88.3
 126   13:30   85.5    12   10.6   164     22.1   958.3    0.00     570    88.0
 126   13:40   85.2    13   10.7   170     20.8   958.1    0.00     755    87.7

Return to Overton, Nevada graphs page.


Western Regional Climate Center,wrcc@dri.edu